createdAt,value
2018-10-07T00:00:30.862Z,16.47
2018-10-07T00:02:59.568Z,16.90
2018-10-07T00:05:28.332Z,17.03
2018-10-07T00:07:57.064Z,17.33
2018-10-07T00:10:25.607Z,16.37
2018-10-07T00:12:54.375Z,15.20
2018-10-07T00:15:22.873Z,14.30
2018-10-07T00:17:51.411Z,17.83
2018-10-07T00:20:20.149Z,16.40
2018-10-07T00:22:48.764Z,16.60
2018-10-07T00:25:17.314Z,15.83
2018-10-07T00:27:45.819Z,17.30
2018-10-07T00:30:14.351Z,17.00
2018-10-07T00:32:42.981Z,16.70
2018-10-07T00:35:11.647Z,15.93
2018-10-07T00:37:40.242Z,17.20
2018-10-07T00:40:08.862Z,18.00
2018-10-07T00:42:37.501Z,18.40
2018-10-07T00:45:06.149Z,17.67
2018-10-07T00:47:34.781Z,18.67
2018-10-07T00:50:03.391Z,18.40
2018-10-07T00:52:31.956Z,19.47
2018-10-07T00:55:00.443Z,19.47
2018-10-07T00:57:28.901Z,18.23
2018-10-07T00:59:57.522Z,18.43
2018-10-07T01:02:25.970Z,18.37
2018-10-07T01:04:54.516Z,16.57
2018-10-07T01:07:23.200Z,18.40
2018-10-07T01:09:51.758Z,16.37
2018-10-07T01:12:20.371Z,22.07
2018-10-07T01:14:48.894Z,19.70
2018-10-07T01:17:17.596Z,23.77
2018-10-07T01:19:46.280Z,18.37
2018-10-07T01:22:14.915Z,16.43
2018-10-07T01:24:43.389Z,18.93
2018-10-07T01:27:12.372Z,19.60
2018-10-07T01:29:41.159Z,19.53
2018-10-07T01:32:09.844Z,19.43
2018-10-07T01:34:38.610Z,18.63
2018-10-07T01:37:07.312Z,19.93
2018-10-07T01:39:36.096Z,18.80
2018-10-07T01:42:04.702Z,17.97
2018-10-07T01:44:33.318Z,19.43
2018-10-07T01:47:01.818Z,20.07
2018-10-07T01:49:30.285Z,20.07
2018-10-07T01:51:58.860Z,20.20
2018-10-07T01:54:27.336Z,25.27
2018-10-07T01:56:56.045Z,18.90
2018-10-07T01:59:24.888Z,20.20
2018-10-07T02:01:53.802Z,19.93
2018-10-07T02:04:22.576Z,19.70
2018-10-07T02:06:51.221Z,19.60
2018-10-07T02:09:19.927Z,20.97
2018-10-07T02:11:48.525Z,18.47
2018-10-07T02:14:17.097Z,21.13
2018-10-07T02:16:45.745Z,21.53
2018-10-07T02:19:14.327Z,27.43
2018-10-07T02:21:42.963Z,20.93
2018-10-07T02:24:11.535Z,21.07
2018-10-07T02:26:40.103Z,20.33
2018-10-07T02:29:08.773Z,21.47
2018-10-07T02:31:37.323Z,21.20
2018-10-07T02:34:24.103Z,19.40
2018-10-07T02:36:52.825Z,16.13
2018-10-07T02:39:21.353Z,23.03
2018-10-07T02:41:49.899Z,20.40
2018-10-07T02:44:18.385Z,22.10
2018-10-07T02:46:46.980Z,23.13
2018-10-07T02:49:15.585Z,21.43
2018-10-07T02:51:45.378Z,20.47
2018-10-07T02:54:13.917Z,20.20
2018-10-07T02:56:42.529Z,24.07
2018-10-07T02:59:12.494Z,22.23
2018-10-07T03:01:41.180Z,21.80
2018-10-07T03:04:11.834Z,21.63
2018-10-07T03:06:40.468Z,21.67
2018-10-07T03:09:10.254Z,21.03
2018-10-07T03:11:38.964Z,23.83
2018-10-07T03:14:07.837Z,20.67
2018-10-07T03:16:36.448Z,23.23
2018-10-07T03:19:04.992Z,21.70
2018-10-07T03:21:33.589Z,26.53
2018-10-07T03:24:02.111Z,22.47
2018-10-07T03:26:30.653Z,23.50
2018-10-07T03:28:59.171Z,21.73
2018-10-07T03:31:27.858Z,23.83
2018-10-07T03:33:57.457Z,20.67
2018-10-07T03:36:25.986Z,24.00
2018-10-07T03:38:54.565Z,21.40
2018-10-07T03:41:23.195Z,22.80
2018-10-07T03:43:51.836Z,28.00
2018-10-07T03:46:20.544Z,25.03
2018-10-07T03:48:49.186Z,26.40
2018-10-07T03:51:17.901Z,20.87
2018-10-07T03:53:46.493Z,24.10
2018-10-07T03:56:15.040Z,22.20
2018-10-07T03:58:43.688Z,25.00
2018-10-07T04:01:12.546Z,26.93
2018-10-07T04:03:41.430Z,23.33
2018-10-07T04:06:10.219Z,20.80
2018-10-07T04:08:39.065Z,21.80
2018-10-07T04:11:07.843Z,23.20
2018-10-07T04:13:36.485Z,23.70
2018-10-07T04:16:05.068Z,21.83
2018-10-07T04:18:33.909Z,30.63
2018-10-07T04:21:02.419Z,27.87
2018-10-07T04:23:30.944Z,24.13
2018-10-07T04:25:59.590Z,25.53
2018-10-07T04:28:28.101Z,26.87
2018-10-07T04:30:56.661Z,29.03
2018-10-07T04:33:25.213Z,29.10
2018-10-07T04:35:53.715Z,24.43
2018-10-07T04:38:22.330Z,24.27
2018-10-07T04:40:50.857Z,23.53
2018-10-07T04:43:19.331Z,25.67
2018-10-07T04:45:47.875Z,25.40
2018-10-07T04:48:16.569Z,25.83
2018-10-07T04:50:45.037Z,23.17
2018-10-07T04:53:13.821Z,27.80
2018-10-07T04:55:42.461Z,26.87
2018-10-07T04:58:11.080Z,26.37
2018-10-07T05:00:39.856Z,24.07
2018-10-07T05:03:08.572Z,25.10
2018-10-07T05:05:37.201Z,33.17
2018-10-07T05:08:06.223Z,23.87
2018-10-07T05:10:49.309Z,30.30
2018-10-07T05:13:27.800Z,25.37
2018-10-07T05:15:57.957Z,27.63
2018-10-07T05:18:26.671Z,29.73
2018-10-07T05:20:55.686Z,32.77
2018-10-07T05:23:24.250Z,27.87
2018-10-07T05:25:52.900Z,31.42
2018-10-07T05:28:21.502Z,26.40
2018-10-07T05:30:53.294Z,25.40
2018-10-07T05:33:28.840Z,24.03
2018-10-07T05:35:58.097Z,31.07
2018-10-07T05:38:26.940Z,31.53
2018-10-07T05:40:55.541Z,28.90
2018-10-07T05:43:24.171Z,26.30
2018-10-07T05:45:52.779Z,27.77
2018-10-07T05:48:21.312Z,28.30
2018-10-07T05:50:50.003Z,20.03
2018-10-07T05:53:18.785Z,29.30
2018-10-07T05:55:47.458Z,29.37
2018-10-07T05:58:16.078Z,25.37
2018-10-07T06:00:45.316Z,24.27
2018-10-07T06:03:29.943Z,27.87
2018-10-07T06:08:39.631Z,29.63
2018-10-07T06:11:08.405Z,32.13
2018-10-07T06:13:37.026Z,29.30
2018-10-07T06:16:05.714Z,28.03
2018-10-07T06:18:35.060Z,28.30
2018-10-07T06:21:03.730Z,27.87
2018-10-07T06:23:32.547Z,26.00
2018-10-07T06:26:01.460Z,27.57
2018-10-07T06:28:30.230Z,26.40
2018-10-07T06:30:58.804Z,27.17
2018-10-07T06:33:27.284Z,27.30
2018-10-07T06:35:55.855Z,26.30
2018-10-07T06:38:24.367Z,28.27
2018-10-07T06:40:52.840Z,30.40
2018-10-07T06:43:21.362Z,31.17
2018-10-07T06:45:49.978Z,28.67
2018-10-07T06:48:18.652Z,28.07
2018-10-07T06:50:47.292Z,26.30
2018-10-07T06:53:15.962Z,31.73
2018-10-07T06:55:44.676Z,27.63
2018-10-07T06:58:13.515Z,28.03
2018-10-07T07:00:42.077Z,28.20
2018-10-07T07:03:10.649Z,30.43
2018-10-07T07:05:39.212Z,28.87
2018-10-07T07:08:07.941Z,32.07
2018-10-07T07:10:36.749Z,27.77
2018-10-07T07:13:05.388Z,28.27
2018-10-07T07:15:34.281Z,28.33
2018-10-07T07:18:03.018Z,28.13
2018-10-07T07:20:32.414Z,27.57
2018-10-07T07:23:01.187Z,26.97
2018-10-07T07:25:30.264Z,26.17
2018-10-07T07:27:58.896Z,24.83
2018-10-07T07:30:27.513Z,28.20
2018-10-07T07:32:56.162Z,27.63
2018-10-07T07:35:24.886Z,25.73
2018-10-07T07:37:53.582Z,25.60
2018-10-07T07:40:22.318Z,27.30
2018-10-07T07:42:50.872Z,25.20
2018-10-07T07:45:19.400Z,26.57
2018-10-07T07:47:48.008Z,25.77
2018-10-07T07:50:16.584Z,25.37
2018-10-07T07:52:45.284Z,25.67
2018-10-07T07:55:13.918Z,23.30
2018-10-07T07:57:42.672Z,24.03
2018-10-07T08:00:11.975Z,23.80
2018-10-07T08:02:40.590Z,24.13
2018-10-07T08:05:09.417Z,22.33
2018-10-07T08:10:20.577Z,23.80
2018-10-07T08:12:49.233Z,21.90
2018-10-07T08:15:18.009Z,24.33
2018-10-07T08:17:46.958Z,19.47
2018-10-07T08:22:57.525Z,18.43
2018-10-07T08:25:26.551Z,18.50
2018-10-07T08:27:55.097Z,19.00
2018-10-07T08:30:30.936Z,17.60
2018-10-07T08:33:02.223Z,16.43
2018-10-07T08:35:39.140Z,18.20
2018-10-07T08:38:12.586Z,19.70
2018-10-07T08:40:46.144Z,19.90
2018-10-07T08:43:22.110Z,18.33
2018-10-07T08:45:53.229Z,16.33
2018-10-07T08:48:22.122Z,17.43
2018-10-07T08:50:50.895Z,18.37
2018-10-07T08:53:20.184Z,16.43
2018-10-07T08:55:48.764Z,17.43
2018-10-07T08:58:17.528Z,19.57
2018-10-07T09:00:49.040Z,20.47
2018-10-07T09:03:17.720Z,19.87
2018-10-07T09:05:49.066Z,20.20
2018-10-07T09:08:18.059Z,21.73
2018-10-07T09:10:47.062Z,19.30
2018-10-07T09:13:15.852Z,20.97
2018-10-07T09:15:45.229Z,21.60
2018-10-07T09:18:14.023Z,18.27
2018-10-07T09:20:44.037Z,18.40
2018-10-07T09:23:14.453Z,21.10
2018-10-07T09:25:44.713Z,19.40
2018-10-07T09:28:14.015Z,22.17
2018-10-07T09:30:43.181Z,22.97
2018-10-07T09:33:12.189Z,22.33
2018-10-07T09:35:40.809Z,21.97
2018-10-07T09:38:09.752Z,25.00
2018-10-07T09:40:39.387Z,26.00
2018-10-07T09:43:07.880Z,26.90
2018-10-07T09:45:36.424Z,24.97
2018-10-07T09:48:04.953Z,26.50
2018-10-07T09:50:33.809Z,25.97
2018-10-07T09:53:02.560Z,31.03
2018-10-07T09:55:31.660Z,31.33
2018-10-07T09:58:00.984Z,34.43
2018-10-07T10:00:34.792Z,37.97
2018-10-07T10:03:04.995Z,39.73
2018-10-07T10:05:33.666Z,36.90
2018-10-07T10:08:02.407Z,36.50
2018-10-07T10:10:31.520Z,44.70
2018-10-07T10:13:00.088Z,44.27
2018-10-07T10:15:28.707Z,54.03
2018-10-07T10:18:01.427Z,48.50
2018-10-07T10:20:37.897Z,45.67
2018-10-07T10:23:27.202Z,46.87
2018-10-07T10:26:09.700Z,46.73
2018-10-07T10:28:46.362Z,48.23
2018-10-07T10:31:23.558Z,42.67
2018-10-07T10:34:06.945Z,40.37
2018-10-07T10:36:46.502Z,40.00
2018-10-07T10:39:24.708Z,41.93
2018-10-07T10:42:14.926Z,40.33
2018-10-07T10:44:46.303Z,41.63
2018-10-07T10:47:47.117Z,36.70
2018-10-07T10:51:22.505Z,43.47
2018-10-07T10:53:58.863Z,43.30
2018-10-07T10:56:31.124Z,37.87
2018-10-07T10:59:44.463Z,39.73
2018-10-07T11:03:19.499Z,40.27
2018-10-07T11:05:56.073Z,45.13
2018-10-07T11:08:34.317Z,42.73
2018-10-07T11:11:17.028Z,45.33
2018-10-07T11:13:58.168Z,47.60
2018-10-07T11:16:33.566Z,47.43
2018-10-07T11:19:15.038Z,51.73
2018-10-07T11:22:56.302Z,41.53
2018-10-07T11:25:39.952Z,51.57
2018-10-07T11:28:35.087Z,48.60
2018-10-07T11:31:15.433Z,51.60
2018-10-07T11:33:54.105Z,48.73
2018-10-07T11:37:04.877Z,48.73
2018-10-07T11:40:14.329Z,46.43
2018-10-07T11:43:58.683Z,42.33
2018-10-07T11:46:44.577Z,39.90
2018-10-07T11:49:18.012Z,42.10
2018-10-07T11:52:57.163Z,42.13
2018-10-07T11:55:30.410Z,33.23
2018-10-07T11:57:59.135Z,34.57
2018-10-07T12:00:27.600Z,35.77
2018-10-07T12:02:56.140Z,33.23
2018-10-07T12:05:24.641Z,33.10
2018-10-07T12:07:53.397Z,28.83
2018-10-07T12:10:22.066Z,26.47
2018-10-07T12:12:50.494Z,25.60
2018-10-07T12:15:19.239Z,18.63
2018-10-07T12:17:48.077Z,20.87
2018-10-07T12:20:16.645Z,23.23
2018-10-07T12:22:45.283Z,20.43
2018-10-07T12:25:13.927Z,22.23
2018-10-07T12:27:42.666Z,16.47
2018-10-07T12:30:11.177Z,20.13
2018-10-07T12:32:40.391Z,20.10
2018-10-07T12:35:08.877Z,15.73
2018-10-07T12:37:37.378Z,16.47
2018-10-07T12:40:06.295Z,19.27
2018-10-07T12:42:36.205Z,16.60
2018-10-07T12:47:43.375Z,14.93
2018-10-07T12:50:12.045Z,14.40
2018-10-07T12:52:41.506Z,16.53
2018-10-07T12:55:10.183Z,11.90
2018-10-07T12:57:40.934Z,15.50
2018-10-07T13:00:09.823Z,11.10
2018-10-07T13:02:38.538Z,12.40
2018-10-07T13:05:08.829Z,13.30
2018-10-07T13:07:37.857Z,13.40
2018-10-07T13:10:07.576Z,11.70
2018-10-07T13:12:37.806Z,11.33
2018-10-07T13:15:06.539Z,9.87
2018-10-07T13:17:35.498Z,9.77
2018-10-07T13:20:05.623Z,8.57
2018-10-07T13:22:36.797Z,8.40
2018-10-07T13:25:05.323Z,7.17
2018-10-07T13:27:34.077Z,7.10
2018-10-07T13:30:02.661Z,8.80
2018-10-07T13:32:31.275Z,6.97
2018-10-07T13:34:59.761Z,12.23
2018-10-07T13:37:28.328Z,7.07
2018-10-07T13:39:59.205Z,8.60
2018-10-07T13:42:29.187Z,8.20
2018-10-07T13:44:58.097Z,10.47
2018-10-07T13:47:26.746Z,6.87
2018-10-07T13:49:55.563Z,7.93
2018-10-07T13:52:24.423Z,6.77
2018-10-07T13:54:53.168Z,6.33
2018-10-07T13:57:21.800Z,6.10
2018-10-07T13:59:50.346Z,5.77
2018-10-07T14:02:21.376Z,7.47
2018-10-07T14:04:51.652Z,6.20
2018-10-07T14:07:24.085Z,6.03
2018-10-07T14:09:53.637Z,4.60
2018-10-07T14:12:23.609Z,4.77
2018-10-07T14:14:54.567Z,4.97
2018-10-07T14:17:23.670Z,4.00
2018-10-07T14:19:53.116Z,3.23
2018-10-07T14:22:22.991Z,4.00
2018-10-07T14:24:52.675Z,4.37
2018-10-07T14:27:26.245Z,3.27
2018-10-07T14:29:56.208Z,3.63
2018-10-07T14:32:25.342Z,4.40
2018-10-07T14:34:54.621Z,3.63
2018-10-07T14:37:24.965Z,3.77
2018-10-07T14:39:55.431Z,6.20
2018-10-07T14:42:26.333Z,5.57
2018-10-07T14:44:55.320Z,3.90
2018-10-07T14:47:23.953Z,3.43
2018-10-07T14:49:53.753Z,4.43
2018-10-07T14:52:22.717Z,3.27
2018-10-07T14:54:52.495Z,3.60
2018-10-07T14:57:28.221Z,3.20
2018-10-07T14:59:57.798Z,2.80
2018-10-07T15:02:26.803Z,3.63
2018-10-07T15:04:56.295Z,3.87
2018-10-07T15:07:24.940Z,3.57
2018-10-07T15:09:53.541Z,3.40
2018-10-07T15:12:22.283Z,2.97
2018-10-07T15:14:50.911Z,2.63
2018-10-07T15:17:19.720Z,3.60
2018-10-07T15:19:48.294Z,1.80
2018-10-07T15:22:16.916Z,2.63
2018-10-07T15:24:46.520Z,4.13
2018-10-07T15:27:15.086Z,2.70
2018-10-07T15:29:43.871Z,3.07
2018-10-07T15:32:12.344Z,1.80
2018-10-07T15:34:41.024Z,2.80
2018-10-07T15:37:09.520Z,2.10
2018-10-07T15:39:38.091Z,1.70
2018-10-07T15:42:06.904Z,1.50
2018-10-07T15:44:35.506Z,1.57
2018-10-07T15:47:04.978Z,1.70
2018-10-07T15:49:34.429Z,1.90
2018-10-07T15:52:03.451Z,1.63
2018-10-07T15:54:32.547Z,1.30
2018-10-07T15:57:01.445Z,2.70
2018-10-07T15:59:30.030Z,1.97
2018-10-07T16:01:59.588Z,3.67
2018-10-07T16:04:29.259Z,2.50
2018-10-07T16:06:57.728Z,2.30
2018-10-07T16:09:26.259Z,2.07
2018-10-07T16:11:55.028Z,2.87
2018-10-07T16:14:24.581Z,2.10
2018-10-07T16:16:53.596Z,1.90
2018-10-07T16:19:22.160Z,3.63
2018-10-07T16:21:51.066Z,2.40
2018-10-07T16:24:20.968Z,1.77
2018-10-07T16:26:50.725Z,2.43
2018-10-07T16:29:20.326Z,1.60
2018-10-07T16:31:49.706Z,1.70
2018-10-07T16:34:19.526Z,1.70
2018-10-07T16:36:53.269Z,1.80
2018-10-07T16:39:22.214Z,3.00
2018-10-07T16:41:50.977Z,2.00
2018-10-07T16:44:19.993Z,1.60
2018-10-07T16:46:48.570Z,3.30
2018-10-07T16:49:17.274Z,1.57
2018-10-07T16:51:45.902Z,4.67
2018-10-07T16:54:15.563Z,2.90
2018-10-07T16:56:44.507Z,2.00
2018-10-07T16:59:13.693Z,1.80
2018-10-07T17:01:45.676Z,1.70
2018-10-07T17:04:15.286Z,1.57
2018-10-07T17:06:45.425Z,1.50
2018-10-07T17:09:15.131Z,1.80
2018-10-07T17:11:43.937Z,2.60
2018-10-07T17:14:12.597Z,1.50
2018-10-07T17:16:42.261Z,1.83
2018-10-07T17:19:11.749Z,3.23
2018-10-07T17:21:40.248Z,1.70
2018-10-07T17:24:08.963Z,2.73
2018-10-07T17:26:37.698Z,4.10
2018-10-07T17:29:06.713Z,2.77
2018-10-07T17:31:35.585Z,2.83
2018-10-07T17:34:04.172Z,3.33
2018-10-07T17:36:32.973Z,5.13
2018-10-07T17:39:01.758Z,3.23
2018-10-07T17:41:30.230Z,2.83
2018-10-07T17:43:58.907Z,2.33
2018-10-07T17:46:27.777Z,2.30
2018-10-07T17:48:56.700Z,2.77
2018-10-07T17:51:25.306Z,5.07
2018-10-07T17:53:53.966Z,2.47
2018-10-07T17:56:22.986Z,2.90
2018-10-07T17:58:51.640Z,1.90
2018-10-07T18:01:20.392Z,2.73
2018-10-07T18:03:49.234Z,3.30
2018-10-07T18:06:17.903Z,3.50
2018-10-07T18:08:46.780Z,2.53
2018-10-07T18:11:15.555Z,3.70
2018-10-07T18:13:44.609Z,3.17
2018-10-07T18:16:13.614Z,2.77
2018-10-07T18:18:47.561Z,2.90
2018-10-07T18:24:05.557Z,2.70
2018-10-07T18:26:36.076Z,2.10
2018-10-07T18:32:24.601Z,3.33
2018-10-07T18:34:53.292Z,3.30
2018-10-07T18:37:22.291Z,2.57
2018-10-07T18:39:54.371Z,3.90
2018-10-07T18:42:23.387Z,3.03
2018-10-07T18:44:52.495Z,2.43
2018-10-07T18:47:21.448Z,3.10
2018-10-07T18:49:51.266Z,2.90
2018-10-07T18:52:25.064Z,2.80
2018-10-07T18:55:05.482Z,2.97
2018-10-07T18:57:36.670Z,4.83
2018-10-07T19:00:08.758Z,2.77
2018-10-07T19:02:49.124Z,2.70
2018-10-07T19:05:19.595Z,2.53
2018-10-07T19:07:54.388Z,2.43
2018-10-07T19:10:24.199Z,3.43
2018-10-07T19:12:54.778Z,2.60
2018-10-07T19:15:24.373Z,2.40
2018-10-07T19:17:57.333Z,2.17
2018-10-07T19:20:31.057Z,2.93
2018-10-07T19:23:07.155Z,5.70
2018-10-07T19:25:39.913Z,2.93
2018-10-07T19:28:12.391Z,3.03
2018-10-07T19:30:43.952Z,3.40
2018-10-07T19:33:18.437Z,3.80
2018-10-07T19:35:50.623Z,3.93
2018-10-07T19:38:21.805Z,4.03
2018-10-07T19:40:52.989Z,3.50
2018-10-07T19:43:25.769Z,3.70
2018-10-07T19:45:59.205Z,3.20
2018-10-07T19:48:33.922Z,4.73
2018-10-07T19:51:06.488Z,4.20
2018-10-07T19:53:38.503Z,3.43
2018-10-07T19:56:13.028Z,2.70
2018-10-07T19:58:45.302Z,2.87
2018-10-07T20:01:17.006Z,2.60
2018-10-07T20:03:49.402Z,3.80
2018-10-07T20:06:20.440Z,2.33
2018-10-07T20:09:01.904Z,2.40
2018-10-07T20:11:32.551Z,3.13
2018-10-07T20:14:07.076Z,3.17
2018-10-07T20:16:37.950Z,2.00
2018-10-07T20:21:45.099Z,1.90
2018-10-07T20:24:14.406Z,2.20
2018-10-07T20:26:43.388Z,2.30
2018-10-07T20:29:12.423Z,2.93
2018-10-07T20:31:44.123Z,2.60
2018-10-07T20:34:13.920Z,3.40
2018-10-07T20:36:43.991Z,2.77
2018-10-07T20:39:12.579Z,2.17
2018-10-07T20:41:41.227Z,2.97
2018-10-07T20:44:09.959Z,3.27
2018-10-07T20:46:38.491Z,3.37
2018-10-07T20:49:07.323Z,2.90
2018-10-07T20:51:37.013Z,3.67
2018-10-07T20:54:05.922Z,3.83
2018-10-07T20:56:34.969Z,4.17
2018-10-07T20:59:06.849Z,5.20
2018-10-07T21:01:43.964Z,5.27
2018-10-07T21:04:20.030Z,6.07
2018-10-07T21:06:56.921Z,8.30
2018-10-07T21:09:28.588Z,4.70
2018-10-07T21:11:58.142Z,4.60
2018-10-07T21:14:27.120Z,5.17
2018-10-07T21:17:01.722Z,4.40
2018-10-07T21:19:39.092Z,4.47
2018-10-07T21:22:16.066Z,3.97
2018-10-07T21:24:54.224Z,4.10
2018-10-07T21:30:13.181Z,2.77
2018-10-07T21:32:49.893Z,3.80
2018-10-07T21:35:31.155Z,2.30
2018-10-07T21:38:08.795Z,2.90
2018-10-07T21:43:28.700Z,2.90
2018-10-07T21:46:22.543Z,2.63
2018-10-07T21:48:53.560Z,3.53
2018-10-07T21:51:24.918Z,2.90
2018-10-07T21:53:57.921Z,2.90
2018-10-07T21:56:34.861Z,3.23
2018-10-07T21:59:09.609Z,2.80
2018-10-07T22:01:51.337Z,3.53
2018-10-07T22:04:33.765Z,3.43
2018-10-07T22:07:08.997Z,3.17
2018-10-07T22:09:44.086Z,3.60
2018-10-07T22:12:18.897Z,3.30
2018-10-07T22:15:02.201Z,4.37
2018-10-07T22:17:35.715Z,3.13
2018-10-07T22:23:08.952Z,3.03
2018-10-07T22:25:53.794Z,3.50
2018-10-07T22:32:18.636Z,3.00
2018-10-07T22:34:52.446Z,3.77
2018-10-07T22:37:27.783Z,3.73
2018-10-07T22:40:13.356Z,3.47
2018-10-07T22:42:46.013Z,3.80
2018-10-07T22:45:32.003Z,3.60
2018-10-07T22:48:06.161Z,3.30
2018-10-07T22:53:50.166Z,3.77
2018-10-07T22:56:28.341Z,6.80
2018-10-07T23:04:33.122Z,4.37
2018-10-07T23:07:08.407Z,5.67
2018-10-07T23:09:42.275Z,3.93
2018-10-07T23:12:20.341Z,3.60
2018-10-07T23:14:57.933Z,3.10
2018-10-07T23:20:21.943Z,5.17
2018-10-07T23:22:53.489Z,3.27
2018-10-07T23:25:25.617Z,5.67
2018-10-07T23:28:02.302Z,4.60
2018-10-07T23:30:40.706Z,3.60
2018-10-07T23:33:09.985Z,4.17
2018-10-07T23:35:44.698Z,4.10
2018-10-07T23:38:16.294Z,3.80
2018-10-07T23:43:33.025Z,3.42
2018-10-07T23:46:04.608Z,4.10
2018-10-07T23:48:43.098Z,3.57
2018-10-07T23:51:14.680Z,4.03
2018-10-07T23:53:45.893Z,3.50
2018-10-07T23:56:16.962Z,5.33
2018-10-07T23:58:50.686Z,4.50
